Terminal Aerodrome Forecast
Issued by NWS Cleveland, OH

Home | Current Version | Previous Version | Text Only | Print | Product List | Glossary On
Versions: 1 2 3 4 5 6 7 8 9 10 11 12 13 14 15 16 17
000
FTUS41 KCLE 181726
TAFYNG
TAF
KYNG 181726Z 1818/1918 25014G20KT P6SM BKN035
     FM190000 28007KT P6SM SCT040 BKN090
     FM190300 26005KT P6SM FEW040 SCT080
     FM190800 25004KT 4SM BR SCT045 BKN100
     FM191400 24006KT P6SM BKN045
     FM191600 24008KT P6SM VCSH BKN045=

USA.gov is the U.S. government's official web portal to all federal, state and local government web resources and services.